Impacts METAR Board
IDs:

KDTW - Detroit Metro/Wayne, MI, US

Updated at: 1200 UTC 17 Dec 2018
Potential Impact None Slight Moderate High
Time 17/00Z 17/01Z 17/02Z 17/03Z 17/04Z 17/05Z 17/06Z 17/07Z 17/08Z 17/09Z 17/10Z 17/11Z 17/12Z
Temp36 34 34 33 33 32 33 32 35 34 35 33 33
Dewpt26 26 26 26 26 26 27 26 28 27 27 26 25
Altim30.00 30.01 30.00 29.99 29.96 29.95 29.94 29.93 29.94 29.94 29.94 29.96 29.98
VIS10 10 9 10 10 8 7 7 7 6 7 7 8
CIG-- -- -- -- -- -- -- -- -- -- -- -- --
CoverFEWFEWSCTFEWCLRCLRFEWFEWFEWFEWSCTSCTFEW
FltCatVFRVFRVFRVFRVFRVFRVFRVFRVFRVFRVFRVFRVFR
WX------------------HZ------
WDir250240270220220240250250290290280290280
WSpd5 6 6 6 8 8 8 5 11 9 10 8 8
WGst-- -- -- -- -- -- -- -- -- -- -- -- --
Raw hourly METARs
KDTW 162353Z 25005KT 10SM FEW200 02/M03 A3000 RMK AO2 SLP164 T00221033 10083 20022 53001 $
KDTW 170053Z 24006KT 10SM FEW200 01/M03 A3001 RMK AO2 SLP167 T00111033 $
KDTW 170153Z 27006KT 9SM SCT200 01/M03 A3000 RMK AO2 SLP166 T00111033 $
KDTW 170253Z 22006KT 10SM FEW220 01/M03 A2999 RMK AO2 SLP160 T00061033 58004 $
KDTW 170353Z 22008KT 10SM CLR 01/M03 A2996 RMK AO2 SLP152 T00061033 $
KDTW 170453Z 24008KT 8SM CLR 00/M03 A2995 RMK AO2 SLP149 T00001033 400831006 $
KDTW 170553Z 25008KT 7SM FEW220 01/M03 A2994 RMK AO2 SLP142 T00061028 10022 20000 56017 $
KDTW 170653Z 25005KT 7SM FEW220 00/M03 A2993 RMK AO2 SLP140 T00001033 $
KDTW 170753Z 29011KT 7SM FEW220 02/M02 A2994 RMK AO2 SLP141 T00171022 $
KDTW 170853Z 29009KT 6SM HZ FEW220 01/M03 A2994 RMK AO2 SLP142 T00111028 55000 $
KDTW 170953Z 28010KT 7SM FEW140 SCT220 02/M03 A2994 RMK AO2 SLP143 T00171028 $
KDTW 171053Z 29008KT 7SM FEW140 SCT220 01/M03 A2996 RMK AO2 SLP150 T00061033 $
KDTW 171153Z 28008KT 8SM FEW220 01/M04 A2998 RMK AO2 SLP158 T00061039 10022 20000 53015 $



Page loaded:  12:27 UTC  |   04:27 AM Pacific  |   05:27 AM Mountain  |   06:27 AM Central  |   07:27 AM Eastern

 

ADVISORIES

FORECASTS

FORECASTS

OBSERVATIONS

USER TOOLS

ABOUT US